sensor_id;sensor_type;location;lat;lon;timestamp;P1;durP1;ratioP1;P2;durP2;ratioP2
40044;SDS011;25735;48.122;11.422;2022-10-29T00:01:24;6.28;;;2.45;;
40044;SDS011;25735;48.122;11.422;2022-10-29T00:03:49;8.82;;;2.03;;
40044;SDS011;25735;48.122;11.422;2022-10-29T00:06:15;6.95;;;2.30;;
40044;SDS011;25735;48.122;11.422;2022-10-29T00:08:40;8.88;;;2.72;;
40044;SDS011;25735;48.122;11.422;2022-10-29T00:11:10;7.45;;;2.55;;
40044;SDS011;25735;48.122;11.422;2022-10-29T00:13:38;6.38;;;2.10;;
40044;SDS011;25735;48.122;11.422;2022-10-29T00:16:06;5.53;;;2.08;;
40044;SDS011;25735;48.122;11.422;2022-10-29T00:18:34;4.97;;;1.80;;
40044;SDS011;25735;48.122;11.422;2022-10-29T00:21:00;6.47;;;1.88;;
40044;SDS011;25735;48.122;11.422;2022-10-29T00:23:27;6.95;;;2.25;;
40044;SDS011;25735;48.122;11.422;2022-10-29T00:25:56;9.82;;;2.47;;
40044;SDS011;25735;48.122;11.422;2022-10-29T00:28:22;3.55;;;1.73;;
40044;SDS011;25735;48.122;11.422;2022-10-29T00:30:47;5.90;;;1.73;;
40044;SDS011;25735;48.122;11.422;2022-10-29T00:33:12;5.38;;;2.20;;
40044;SDS011;25735;48.122;11.422;2022-10-29T00:35:38;8.07;;;2.45;;
40044;SDS011;25735;48.122;11.422;2022-10-29T00:38:03;6.47;;;1.92;;
40044;SDS011;25735;48.122;11.422;2022-10-29T00:40:28;4.82;;;2.25;;
40044;SDS011;25735;48.122;11.422;2022-10-29T00:43:10;4.57;;;2.45;;
40044;SDS011;25735;48.122;11.422;2022-10-29T00:45:36;11.57;;;2.33;;
40044;SDS011;25735;48.122;11.422;2022-10-29T00:48:06;5.20;;;2.05;;
40044;SDS011;25735;48.122;11.422;2022-10-29T00:50:32;9.23;;;2.88;;
40044;SDS011;25735;48.122;11.422;2022-10-29T00:52:58;6.75;;;2.15;;
40044;SDS011;25735;48.122;11.422;2022-10-29T00:55:23;5.70;;;2.40;;
40044;SDS011;25735;48.122;11.422;2022-10-29T00:57:50;5.57;;;2.08;;
40044;SDS011;25735;48.122;11.422;2022-10-29T01:00:17;8.10;;;2.45;;
40044;SDS011;25735;48.122;11.422;2022-10-29T01:02:45;6.13;;;2.03;;
40044;SDS011;25735;48.122;11.422;2022-10-29T01:05:11;6.72;;;2.63;;
40044;SDS011;25735;48.122;11.422;2022-10-29T01:07:39;6.50;;;2.35;;
40044;SDS011;25735;48.122;11.422;2022-10-29T01:10:04;7.20;;;2.28;;
40044;SDS011;25735;48.122;11.422;2022-10-29T01:15:06;8.47;;;2.67;;
40044;SDS011;25735;48.122;11.422;2022-10-29T01:17:48;6.35;;;2.55;;
40044;SDS011;25735;48.122;11.422;2022-10-29T01:29:53;6.53;;;2.35;;
40044;SDS011;25735;48.122;11.422;2022-10-29T01:33:05;5.13;;;2.13;;
40044;SDS011;25735;48.122;11.422;2022-10-29T01:35:15;8.57;;;3.28;;
40044;SDS011;25735;48.122;11.422;2022-10-29T01:40:27;8.35;;;2.58;;
40044;SDS011;25735;48.122;11.422;2022-10-29T01:43:04;8.55;;;2.00;;
40044;SDS011;25735;48.122;11.422;2022-10-29T01:45:40;4.47;;;2.65;;
40044;SDS011;25735;48.122;11.422;2022-10-29T01:48:10;4.82;;;2.00;;
40044;SDS011;25735;48.122;11.422;2022-10-29T01:50:41;4.80;;;2.55;;
40044;SDS011;25735;48.122;11.422;2022-10-29T01:53:10;6.85;;;2.30;;
40044;SDS011;25735;48.122;11.422;2022-10-29T01:55:36;13.93;;;3.50;;
40044;SDS011;25735;48.122;11.422;2022-10-29T01:58:05;6.28;;;2.40;;
40044;SDS011;25735;48.122;11.422;2022-10-29T02:00:54;5.35;;;1.95;;
40044;SDS011;25735;48.122;11.422;2022-10-29T02:09:15;7.50;;;3.13;;
40044;SDS011;25735;48.122;11.422;2022-10-29T02:11:51;4.72;;;2.25;;
40044;SDS011;25735;48.122;11.422;2022-10-29T02:14:36;8.75;;;2.45;;
40044;SDS011;25735;48.122;11.422;2022-10-29T02:17:04;9.80;;;2.10;;
40044;SDS011;25735;48.122;11.422;2022-10-29T02:19:31;8.32;;;2.22;;
40044;SDS011;25735;48.122;11.422;2022-10-29T02:21:57;5.22;;;1.95;;
40044;SDS011;25735;48.122;11.422;2022-10-29T02:24:23;7.00;;;2.10;;
40044;SDS011;25735;48.122;11.422;2022-10-29T02:26:49;6.50;;;2.40;;
40044;SDS011;25735;48.122;11.422;2022-10-29T02:29:15;4.93;;;2.03;;
40044;SDS011;25735;48.122;11.422;2022-10-29T02:31:40;7.60;;;2.30;;
40044;SDS011;25735;48.122;11.422;2022-10-29T02:34:06;9.52;;;2.53;;
40044;SDS011;25735;48.122;11.422;2022-10-29T02:36:31;5.57;;;2.42;;
40044;SDS011;25735;48.122;11.422;2022-10-29T02:38:56;8.68;;;2.25;;
40044;SDS011;25735;48.122;11.422;2022-10-29T02:41:21;6.18;;;2.13;;
40044;SDS011;25735;48.122;11.422;2022-10-29T02:43:47;15.10;;;2.63;;
40044;SDS011;25735;48.122;11.422;2022-10-29T02:46:13;4.97;;;2.42;;
40044;SDS011;25735;48.122;11.422;2022-10-29T02:48:42;6.13;;;2.28;;
40044;SDS011;25735;48.122;11.422;2022-10-29T02:51:07;8.48;;;2.72;;
40044;SDS011;25735;48.122;11.422;2022-10-29T02:53:33;6.75;;;2.20;;
40044;SDS011;25735;48.122;11.422;2022-10-29T02:55:58;7.03;;;2.88;;
40044;SDS011;25735;48.122;11.422;2022-10-29T02:58:23;5.25;;;2.58;;
40044;SDS011;25735;48.122;11.422;2022-10-29T03:00:49;7.03;;;1.92;;
40044;SDS011;25735;48.122;11.422;2022-10-29T03:03:15;8.02;;;3.25;;
40044;SDS011;25735;48.122;11.422;2022-10-29T03:05:40;6.60;;;2.42;;
40044;SDS011;25735;48.122;11.422;2022-10-29T03:08:06;4.88;;;2.15;;
40044;SDS011;25735;48.122;11.422;2022-10-29T03:10:31;6.80;;;2.60;;
40044;SDS011;25735;48.122;11.422;2022-10-29T03:12:59;5.00;;;1.70;;
40044;SDS011;25735;48.122;11.422;2022-10-29T03:15:25;9.02;;;2.08;;
40044;SDS011;25735;48.122;11.422;2022-10-29T03:17:50;8.55;;;2.47;;
40044;SDS011;25735;48.122;11.422;2022-10-29T03:20:15;8.88;;;2.30;;
40044;SDS011;25735;48.122;11.422;2022-10-29T03:22:41;13.05;;;2.28;;
40044;SDS011;25735;48.122;11.422;2022-10-29T03:25:06;8.05;;;2.13;;
40044;SDS011;25735;48.122;11.422;2022-10-29T03:27:32;6.85;;;2.15;;
40044;SDS011;25735;48.122;11.422;2022-10-29T03:29:57;10.15;;;2.50;;
40044;SDS011;25735;48.122;11.422;2022-10-29T03:32:23;5.57;;;2.00;;
40044;SDS011;25735;48.122;11.422;2022-10-29T03:34:48;4.70;;;2.03;;
40044;SDS011;25735;48.122;11.422;2022-10-29T03:37:13;12.35;;;2.95;;
40044;SDS011;25735;48.122;11.422;2022-10-29T03:39:39;11.23;;;2.67;;
40044;SDS011;25735;48.122;11.422;2022-10-29T03:42:04;7.45;;;2.83;;
40044;SDS011;25735;48.122;11.422;2022-10-29T03:44:29;6.45;;;2.30;;
40044;SDS011;25735;48.122;11.422;2022-10-29T03:46:55;9.05;;;2.33;;
40044;SDS011;25735;48.122;11.422;2022-10-29T03:49:20;9.52;;;2.58;;
40044;SDS011;25735;48.122;11.422;2022-10-29T03:51:45;8.38;;;2.53;;
40044;SDS011;25735;48.122;11.422;2022-10-29T03:54:11;10.60;;;2.95;;
40044;SDS011;25735;48.122;11.422;2022-10-29T03:56:36;11.07;;;2.47;;
40044;SDS011;25735;48.122;11.422;2022-10-29T03:59:01;11.30;;;2.50;;
40044;SDS011;25735;48.122;11.422;2022-10-29T04:01:26;7.25;;;2.22;;
40044;SDS011;25735;48.122;11.422;2022-10-29T04:03:52;7.65;;;2.38;;
40044;SDS011;25735;48.122;11.422;2022-10-29T04:06:17;8.00;;;1.90;;
40044;SDS011;25735;48.122;11.422;2022-10-29T04:08:42;11.38;;;2.88;;
40044;SDS011;25735;48.122;11.422;2022-10-29T04:11:11;6.45;;;2.85;;
40044;SDS011;25735;48.122;11.422;2022-10-29T04:13:37;10.60;;;2.30;;
40044;SDS011;25735;48.122;11.422;2022-10-29T04:16:03;6.95;;;2.15;;
40044;SDS011;25735;48.122;11.422;2022-10-29T04:18:28;11.32;;;2.53;;
40044;SDS011;25735;48.122;11.422;2022-10-29T04:20:57;4.13;;;1.88;;
40044;SDS011;25735;48.122;11.422;2022-10-29T04:23:24;9.57;;;2.50;;
40044;SDS011;25735;48.122;11.422;2022-10-29T04:25:56;7.07;;;2.10;;
40044;SDS011;25735;48.122;11.422;2022-10-29T04:28:22;7.78;;;1.88;;
40044;SDS011;25735;48.122;11.422;2022-10-29T04:30:48;7.72;;;2.67;;
40044;SDS011;25735;48.122;11.422;2022-10-29T04:33:13;4.70;;;1.95;;
40044;SDS011;25735;48.122;11.422;2022-10-29T04:35:39;5.05;;;1.92;;
40044;SDS011;25735;48.122;11.422;2022-10-29T04:38:10;6.10;;;2.10;;
40044;SDS011;25735;48.122;11.422;2022-10-29T04:40:36;11.02;;;2.30;;
40044;SDS011;25735;48.122;11.422;2022-10-29T04:43:02;7.57;;;2.05;;
40044;SDS011;25735;48.122;11.422;2022-10-29T04:45:27;6.75;;;2.75;;
40044;SDS011;25735;48.122;11.422;2022-10-29T04:47:59;7.93;;;2.53;;
40044;SDS011;25735;48.122;11.422;2022-10-29T04:50:29;4.45;;;2.00;;
40044;SDS011;25735;48.122;11.422;2022-10-29T04:52:58;6.75;;;2.05;;
40044;SDS011;25735;48.122;11.422;2022-10-29T04:55:24;6.82;;;2.40;;
40044;SDS011;25735;48.122;11.422;2022-10-29T04:57:49;6.00;;;1.95;;
40044;SDS011;25735;48.122;11.422;2022-10-29T05:00:15;11.38;;;2.17;;
40044;SDS011;25735;48.122;11.422;2022-10-29T05:02:40;6.45;;;2.25;;
40044;SDS011;25735;48.122;11.422;2022-10-29T05:05:05;7.95;;;2.38;;
40044;SDS011;25735;48.122;11.422;2022-10-29T05:07:31;7.20;;;3.00;;
40044;SDS011;25735;48.122;11.422;2022-10-29T05:09:56;10.60;;;2.00;;
40044;SDS011;25735;48.122;11.422;2022-10-29T05:12:21;6.47;;;2.65;;
40044;SDS011;25735;48.122;11.422;2022-10-29T05:14:47;11.80;;;2.40;;
40044;SDS011;25735;48.122;11.422;2022-10-29T05:17:12;10.57;;;2.70;;
40044;SDS011;25735;48.122;11.422;2022-10-29T05:19:37;7.05;;;2.45;;
40044;SDS011;25735;48.122;11.422;2022-10-29T05:22:02;7.38;;;2.72;;
40044;SDS011;25735;48.122;11.422;2022-10-29T05:24:28;7.63;;;3.17;;
40044;SDS011;25735;48.122;11.422;2022-10-29T05:26:53;7.60;;;2.65;;
40044;SDS011;25735;48.122;11.422;2022-10-29T05:29:18;6.32;;;1.73;;
40044;SDS011;25735;48.122;11.422;2022-10-29T05:31:43;6.75;;;2.92;;
40044;SDS011;25735;48.122;11.422;2022-10-29T05:34:09;7.63;;;2.53;;
40044;SDS011;25735;48.122;11.422;2022-10-29T05:36:34;5.60;;;2.28;;
40044;SDS011;25735;48.122;11.422;2022-10-29T05:38:59;5.90;;;1.80;;
40044;SDS011;25735;48.122;11.422;2022-10-29T05:41:25;6.00;;;2.28;;
40044;SDS011;25735;48.122;11.422;2022-10-29T05:43:50;6.25;;;2.75;;
40044;SDS011;25735;48.122;11.422;2022-10-29T05:46:15;8.98;;;2.30;;
40044;SDS011;25735;48.122;11.422;2022-10-29T05:48:41;9.18;;;2.97;;
40044;SDS011;25735;48.122;11.422;2022-10-29T05:51:06;6.88;;;2.10;;
40044;SDS011;25735;48.122;11.422;2022-10-29T05:53:31;6.13;;;2.25;;
40044;SDS011;25735;48.122;11.422;2022-10-29T05:55:57;11.63;;;2.67;;
40044;SDS011;25735;48.122;11.422;2022-10-29T05:58:22;7.40;;;2.55;;
40044;SDS011;25735;48.122;11.422;2022-10-29T06:00:48;6.50;;;2.30;;
40044;SDS011;25735;48.122;11.422;2022-10-29T06:03:17;11.00;;;1.98;;
40044;SDS011;25735;48.122;11.422;2022-10-29T06:05:45;9.48;;;2.80;;
40044;SDS011;25735;48.122;11.422;2022-10-29T06:08:11;11.05;;;2.22;;
40044;SDS011;25735;48.122;11.422;2022-10-29T06:10:36;7.78;;;2.25;;
40044;SDS011;25735;48.122;11.422;2022-10-29T06:13:02;5.43;;;1.90;;
40044;SDS011;25735;48.122;11.422;2022-10-29T06:17:58;6.10;;;2.00;;
40044;SDS011;25735;48.122;11.422;2022-10-29T06:20:24;8.57;;;2.15;;
40044;SDS011;25735;48.122;11.422;2022-10-29T06:22:58;6.05;;;2.45;;
40044;SDS011;25735;48.122;11.422;2022-10-29T06:25:24;11.52;;;2.92;;
40044;SDS011;25735;48.122;11.422;2022-10-29T06:28:00;8.57;;;2.40;;
40044;SDS011;25735;48.122;11.422;2022-10-29T06:30:26;6.70;;;1.85;;
40044;SDS011;25735;48.122;11.422;2022-10-29T06:32:53;10.32;;;2.72;;
40044;SDS011;25735;48.122;11.422;2022-10-29T06:35:19;6.70;;;1.95;;
40044;SDS011;25735;48.122;11.422;2022-10-29T06:37:44;11.85;;;3.17;;
40044;SDS011;25735;48.122;11.422;2022-10-29T06:40:09;7.30;;;2.30;;
40044;SDS011;25735;48.122;11.422;2022-10-29T06:42:35;11.30;;;3.40;;
40044;SDS011;25735;48.122;11.422;2022-10-29T06:45:00;5.95;;;2.35;;
40044;SDS011;25735;48.122;11.422;2022-10-29T06:47:25;8.98;;;2.33;;
40044;SDS011;25735;48.122;11.422;2022-10-29T06:49:50;9.75;;;2.03;;
40044;SDS011;25735;48.122;11.422;2022-10-29T06:52:16;7.85;;;2.35;;
40044;SDS011;25735;48.122;11.422;2022-10-29T06:54:41;7.00;;;1.98;;
40044;SDS011;25735;48.122;11.422;2022-10-29T06:57:06;11.85;;;2.17;;
40044;SDS011;25735;48.122;11.422;2022-10-29T06:59:31;7.38;;;2.33;;
40044;SDS011;25735;48.122;11.422;2022-10-29T07:01:57;9.55;;;2.47;;
40044;SDS011;25735;48.122;11.422;2022-10-29T07:04:22;6.38;;;1.92;;
40044;SDS011;25735;48.122;11.422;2022-10-29T07:06:47;8.00;;;2.20;;
40044;SDS011;25735;48.122;11.422;2022-10-29T07:09:13;5.43;;;2.17;;
40044;SDS011;25735;48.122;11.422;2022-10-29T07:11:38;7.32;;;2.28;;
40044;SDS011;25735;48.122;11.422;2022-10-29T07:14:03;7.20;;;2.42;;
40044;SDS011;25735;48.122;11.422;2022-10-29T07:16:29;10.50;;;2.55;;
40044;SDS011;25735;48.122;11.422;2022-10-29T07:18:55;11.80;;;3.70;;
40044;SDS011;25735;48.122;11.422;2022-10-29T07:21:21;7.57;;;2.15;;
40044;SDS011;25735;48.122;11.422;2022-10-29T07:23:46;8.85;;;2.60;;
40044;SDS011;25735;48.122;11.422;2022-10-29T07:26:12;6.28;;;2.13;;
40044;SDS011;25735;48.122;11.422;2022-10-29T07:28:37;6.70;;;2.00;;
40044;SDS011;25735;48.122;11.422;2022-10-29T07:31:02;11.07;;;2.00;;
40044;SDS011;25735;48.122;11.422;2022-10-29T07:33:28;5.55;;;1.90;;
40044;SDS011;25735;48.122;11.422;2022-10-29T07:35:56;11.75;;;2.40;;
40044;SDS011;25735;48.122;11.422;2022-10-29T07:38:22;16.40;;;3.00;;
40044;SDS011;25735;48.122;11.422;2022-10-29T07:40:49;7.35;;;1.77;;
40044;SDS011;25735;48.122;11.422;2022-10-29T07:43:16;6.45;;;2.33;;
40044;SDS011;25735;48.122;11.422;2022-10-29T07:45:45;7.45;;;2.67;;
40044;SDS011;25735;48.122;11.422;2022-10-29T07:48:13;7.80;;;2.60;;
40044;SDS011;25735;48.122;11.422;2022-10-29T07:50:39;9.75;;;2.67;;
40044;SDS011;25735;48.122;11.422;2022-10-29T07:53:05;12.57;;;2.40;;
40044;SDS011;25735;48.122;11.422;2022-10-29T07:55:31;9.30;;;2.92;;
40044;SDS011;25735;48.122;11.422;2022-10-29T07:57:56;6.45;;;2.50;;
40044;SDS011;25735;48.122;11.422;2022-10-29T08:00:25;7.22;;;2.20;;
40044;SDS011;25735;48.122;11.422;2022-10-29T08:02:52;10.27;;;2.65;;
40044;SDS011;25735;48.122;11.422;2022-10-29T08:05:18;16.02;;;2.17;;
40044;SDS011;25735;48.122;11.422;2022-10-29T08:07:43;6.30;;;2.20;;
40044;SDS011;25735;48.122;11.422;2022-10-29T08:10:08;4.60;;;2.03;;
40044;SDS011;25735;48.122;11.422;2022-10-29T08:12:34;6.28;;;2.20;;
40044;SDS011;25735;48.122;11.422;2022-10-29T08:14:59;8.02;;;2.10;;
40044;SDS011;25735;48.122;11.422;2022-10-29T08:17:24;8.25;;;2.92;;
40044;SDS011;25735;48.122;11.422;2022-10-29T08:19:53;9.75;;;3.60;;
40044;SDS011;25735;48.122;11.422;2022-10-29T08:22:18;7.60;;;2.22;;
40044;SDS011;25735;48.122;11.422;2022-10-29T08:24:44;8.98;;;2.60;;
40044;SDS011;25735;48.122;11.422;2022-10-29T08:27:09;10.30;;;2.42;;
40044;SDS011;25735;48.122;11.422;2022-10-29T08:29:34;7.13;;;2.17;;
40044;SDS011;25735;48.122;11.422;2022-10-29T08:32:00;10.23;;;2.70;;
40044;SDS011;25735;48.122;11.422;2022-10-29T08:34:28;11.13;;;2.38;;
40044;SDS011;25735;48.122;11.422;2022-10-29T08:36:53;10.00;;;2.72;;
40044;SDS011;25735;48.122;11.422;2022-10-29T08:39:18;6.68;;;2.05;;
40044;SDS011;25735;48.122;11.422;2022-10-29T08:41:54;10.07;;;2.75;;
40044;SDS011;25735;48.122;11.422;2022-10-29T08:44:29;10.82;;;2.35;;
40044;SDS011;25735;48.122;11.422;2022-10-29T08:52:26;10.88;;;2.45;;
40044;SDS011;25735;48.122;11.422;2022-10-29T08:54:58;9.40;;;2.53;;
40044;SDS011;25735;48.122;11.422;2022-10-29T08:57:30;8.15;;;2.20;;
40044;SDS011;25735;48.122;11.422;2022-10-29T09:00:05;13.23;;;2.85;;
40044;SDS011;25735;48.122;11.422;2022-10-29T09:02:38;9.13;;;2.65;;
40044;SDS011;25735;48.122;11.422;2022-10-29T09:05:04;8.57;;;2.25;;
40044;SDS011;25735;48.122;11.422;2022-10-29T09:10:26;7.38;;;2.70;;
40044;SDS011;25735;48.122;11.422;2022-10-29T09:21:50;10.68;;;2.25;;
40044;SDS011;25735;48.122;11.422;2022-10-29T09:24:27;9.10;;;2.20;;
40044;SDS011;25735;48.122;11.422;2022-10-29T09:34:50;9.82;;;2.65;;
40044;SDS011;25735;48.122;11.422;2022-10-29T09:37:24;11.68;;;2.80;;
40044;SDS011;25735;48.122;11.422;2022-10-29T09:39:58;7.78;;;2.00;;
40044;SDS011;25735;48.122;11.422;2022-10-29T09:42:29;13.88;;;2.25;;
40044;SDS011;25735;48.122;11.422;2022-10-29T09:45:01;8.85;;;2.63;;
40044;SDS011;25735;48.122;11.422;2022-10-29T09:53:02;5.55;;;2.30;;
40044;SDS011;25735;48.122;11.422;2022-10-29T09:55:31;10.95;;;2.47;;
40044;SDS011;25735;48.122;11.422;2022-10-29T09:58:04;7.57;;;2.00;;
40044;SDS011;25735;48.122;11.422;2022-10-29T10:00:30;8.93;;;2.28;;
40044;SDS011;25735;48.122;11.422;2022-10-29T10:02:58;12.57;;;2.85;;
40044;SDS011;25735;48.122;11.422;2022-10-29T10:05:29;4.95;;;2.00;;
40044;SDS011;25735;48.122;11.422;2022-10-29T10:08:09;8.43;;;2.42;;
40044;SDS011;25735;48.122;11.422;2022-10-29T10:10:38;7.68;;;2.38;;
40044;SDS011;25735;48.122;11.422;2022-10-29T10:13:17;5.73;;;1.90;;
40044;SDS011;25735;48.122;11.422;2022-10-29T10:15:51;12.40;;;2.35;;
40044;SDS011;25735;48.122;11.422;2022-10-29T10:18:19;10.70;;;2.40;;
40044;SDS011;25735;48.122;11.422;2022-10-29T10:20:47;5.82;;;2.08;;
40044;SDS011;25735;48.122;11.422;2022-10-29T10:23:41;7.90;;;2.58;;
40044;SDS011;25735;48.122;11.422;2022-10-29T10:31:28;11.27;;;3.45;;
40044;SDS011;25735;48.122;11.422;2022-10-29T10:33:54;11.55;;;2.65;;
40044;SDS011;25735;48.122;11.422;2022-10-29T10:36:21;9.70;;;2.50;;
40044;SDS011;25735;48.122;11.422;2022-10-29T10:38:50;6.57;;;2.13;;
40044;SDS011;25735;48.122;11.422;2022-10-29T10:41:23;8.30;;;2.25;;
40044;SDS011;25735;48.122;11.422;2022-10-29T10:46:32;8.85;;;3.03;;
40044;SDS011;25735;48.122;11.422;2022-10-29T10:49:05;10.30;;;2.15;;
40044;SDS011;25735;48.122;11.422;2022-10-29T10:51:38;10.10;;;2.53;;
40044;SDS011;25735;48.122;11.422;2022-10-29T10:57:15;10.55;;;2.50;;
40044;SDS011;25735;48.122;11.422;2022-10-29T11:02:54;6.53;;;2.65;;
40044;SDS011;25735;48.122;11.422;2022-10-29T11:05:30;9.60;;;2.50;;
40044;SDS011;25735;48.122;11.422;2022-10-29T11:10:54;6.13;;;2.53;;
40044;SDS011;25735;48.122;11.422;2022-10-29T11:13:24;7.30;;;3.15;;
40044;SDS011;25735;48.122;11.422;2022-10-29T11:15:54;9.48;;;2.33;;
40044;SDS011;25735;48.122;11.422;2022-10-29T11:18:26;8.82;;;2.45;;
40044;SDS011;25735;48.122;11.422;2022-10-29T11:26:06;8.07;;;3.08;;
40044;SDS011;25735;48.122;11.422;2022-10-29T11:28:38;7.10;;;2.10;;
40044;SDS011;25735;48.122;11.422;2022-10-29T11:33:51;4.68;;;1.95;;
40044;SDS011;25735;48.122;11.422;2022-10-29T11:36:30;9.07;;;3.03;;
40044;SDS011;25735;48.122;11.422;2022-10-29T11:39:12;8.68;;;2.80;;
40044;SDS011;25735;48.122;11.422;2022-10-29T11:41:49;10.43;;;3.45;;
40044;SDS011;25735;48.122;11.422;2022-10-29T11:44:21;6.28;;;2.28;;
40044;SDS011;25735;48.122;11.422;2022-10-29T11:49:28;5.68;;;2.22;;
40044;SDS011;25735;48.122;11.422;2022-10-29T11:52:12;8.40;;;2.15;;
40044;SDS011;25735;48.122;11.422;2022-10-29T11:54:42;8.88;;;2.30;;
40044;SDS011;25735;48.122;11.422;2022-10-29T11:57:18;10.27;;;2.58;;
40044;SDS011;25735;48.122;11.422;2022-10-29T11:59:58;7.03;;;2.25;;
40044;SDS011;25735;48.122;11.422;2022-10-29T12:05:21;8.45;;;2.38;;
40044;SDS011;25735;48.122;11.422;2022-10-29T12:08:06;10.18;;;2.60;;
40044;SDS011;25735;48.122;11.422;2022-10-29T12:10:53;12.35;;;2.50;;
40044;SDS011;25735;48.122;11.422;2022-10-29T12:13:46;7.30;;;2.20;;
40044;SDS011;25735;48.122;11.422;2022-10-29T12:27:26;7.53;;;2.67;;
40044;SDS011;25735;48.122;11.422;2022-10-29T12:32:29;10.80;;;2.95;;
40044;SDS011;25735;48.122;11.422;2022-10-29T12:40:29;10.77;;;3.22;;
40044;SDS011;25735;48.122;11.422;2022-10-29T12:42:59;9.02;;;2.13;;
40044;SDS011;25735;48.122;11.422;2022-10-29T12:45:31;5.90;;;2.33;;
40044;SDS011;25735;48.122;11.422;2022-10-29T12:54:15;8.20;;;2.75;;
40044;SDS011;25735;48.122;11.422;2022-10-29T12:56:24;5.53;;;2.67;;
40044;SDS011;25735;48.122;11.422;2022-10-29T12:58:54;9.85;;;2.90;;
40044;SDS011;25735;48.122;11.422;2022-10-29T13:09:16;9.07;;;2.63;;
40044;SDS011;25735;48.122;11.422;2022-10-29T13:11:47;9.63;;;2.55;;
40044;SDS011;25735;48.122;11.422;2022-10-29T13:14:25;9.95;;;2.95;;
40044;SDS011;25735;48.122;11.422;2022-10-29T13:16:56;11.52;;;2.75;;
40044;SDS011;25735;48.122;11.422;2022-10-29T13:21:59;9.88;;;3.72;;
40044;SDS011;25735;48.122;11.422;2022-10-29T13:24:27;11.70;;;3.13;;
40044;SDS011;25735;48.122;11.422;2022-10-29T13:26:54;10.65;;;2.67;;
40044;SDS011;25735;48.122;11.422;2022-10-29T13:30:23;10.40;;;2.60;;
40044;SDS011;25735;48.122;11.422;2022-10-29T13:32:36;10.38;;;3.20;;
40044;SDS011;25735;48.122;11.422;2022-10-29T13:37:54;8.77;;;2.85;;
40044;SDS011;25735;48.122;11.422;2022-10-29T13:42:56;6.35;;;2.28;;
40044;SDS011;25735;48.122;11.422;2022-10-29T13:45:25;9.65;;;2.05;;
40044;SDS011;25735;48.122;11.422;2022-10-29T13:47:50;9.20;;;2.60;;
40044;SDS011;25735;48.122;11.422;2022-10-29T13:50:17;9.07;;;2.47;;
40044;SDS011;25735;48.122;11.422;2022-10-29T13:52:45;7.57;;;2.83;;
40044;SDS011;25735;48.122;11.422;2022-10-29T13:55:15;6.88;;;2.38;;
40044;SDS011;25735;48.122;11.422;2022-10-29T14:00:17;7.32;;;2.30;;
40044;SDS011;25735;48.122;11.422;2022-10-29T14:02:49;11.50;;;2.70;;
40044;SDS011;25735;48.122;11.422;2022-10-29T14:05:24;8.88;;;2.75;;
40044;SDS011;25735;48.122;11.422;2022-10-29T14:08:02;9.13;;;2.67;;
40044;SDS011;25735;48.122;11.422;2022-10-29T14:10:34;13.15;;;3.30;;
40044;SDS011;25735;48.122;11.422;2022-10-29T14:15:37;7.22;;;2.63;;
40044;SDS011;25735;48.122;11.422;2022-10-29T14:21:02;9.73;;;3.10;;
40044;SDS011;25735;48.122;11.422;2022-10-29T14:23:30;12.13;;;3.88;;
40044;SDS011;25735;48.122;11.422;2022-10-29T14:25:57;8.50;;;3.03;;
40044;SDS011;25735;48.122;11.422;2022-10-29T14:28:24;13.68;;;3.83;;
40044;SDS011;25735;48.122;11.422;2022-10-29T14:30:58;9.60;;;3.70;;
40044;SDS011;25735;48.122;11.422;2022-10-29T14:33:36;7.20;;;3.05;;
40044;SDS011;25735;48.122;11.422;2022-10-29T14:39:10;11.45;;;3.63;;
40044;SDS011;25735;48.122;11.422;2022-10-29T14:41:29;16.13;;;3.40;;
40044;SDS011;25735;48.122;11.422;2022-10-29T14:44:03;8.88;;;3.33;;
40044;SDS011;25735;48.122;11.422;2022-10-29T14:46:36;12.57;;;3.55;;
40044;SDS011;25735;48.122;11.422;2022-10-29T14:51:35;9.35;;;3.45;;
40044;SDS011;25735;48.122;11.422;2022-10-29T14:54:03;8.50;;;2.95;;
40044;SDS011;25735;48.122;11.422;2022-10-29T14:56:35;8.68;;;3.13;;
40044;SDS011;25735;48.122;11.422;2022-10-29T14:59:13;6.50;;;2.47;;
40044;SDS011;25735;48.122;11.422;2022-10-29T15:01:46;6.13;;;2.83;;
40044;SDS011;25735;48.122;11.422;2022-10-29T15:04:18;8.13;;;3.30;;
40044;SDS011;25735;48.122;11.422;2022-10-29T15:06:45;9.63;;;2.92;;
40044;SDS011;25735;48.122;11.422;2022-10-29T15:09:11;7.43;;;3.13;;
40044;SDS011;25735;48.122;11.422;2022-10-29T15:11:57;8.73;;;3.95;;
40044;SDS011;25735;48.122;11.422;2022-10-29T15:14:47;8.93;;;3.45;;
40044;SDS011;25735;48.122;11.422;2022-10-29T15:17:24;9.30;;;3.40;;
40044;SDS011;25735;48.122;11.422;2022-10-29T15:19:56;9.52;;;3.58;;
40044;SDS011;25735;48.122;11.422;2022-10-29T15:22:33;10.20;;;3.28;;
40044;SDS011;25735;48.122;11.422;2022-10-29T15:25:01;8.05;;;3.20;;
40044;SDS011;25735;48.122;11.422;2022-10-29T15:27:29;10.23;;;3.40;;
40044;SDS011;25735;48.122;11.422;2022-10-29T15:29:54;10.20;;;3.22;;
40044;SDS011;25735;48.122;11.422;2022-10-29T15:32:20;11.73;;;3.25;;
40044;SDS011;25735;48.122;11.422;2022-10-29T15:34:46;12.00;;;2.88;;
40044;SDS011;25735;48.122;11.422;2022-10-29T15:39:58;8.75;;;3.58;;
40044;SDS011;25735;48.122;11.422;2022-10-29T15:42:37;7.18;;;3.15;;
40044;SDS011;25735;48.122;11.422;2022-10-29T15:47:31;9.70;;;3.47;;
40044;SDS011;25735;48.122;11.422;2022-10-29T15:49:56;9.80;;;3.33;;
40044;SDS011;25735;48.122;11.422;2022-10-29T15:52:23;10.00;;;4.03;;
40044;SDS011;25735;48.122;11.422;2022-10-29T15:54:53;7.15;;;3.83;;
40044;SDS011;25735;48.122;11.422;2022-10-29T15:57:18;12.63;;;3.13;;
40044;SDS011;25735;48.122;11.422;2022-10-29T15:59:43;10.57;;;3.08;;
40044;SDS011;25735;48.122;11.422;2022-10-29T16:02:09;10.68;;;4.03;;
40044;SDS011;25735;48.122;11.422;2022-10-29T16:04:35;12.18;;;3.63;;
40044;SDS011;25735;48.122;11.422;2022-10-29T16:07:01;8.65;;;3.00;;
40044;SDS011;25735;48.122;11.422;2022-10-29T16:09:26;11.63;;;3.67;;
40044;SDS011;25735;48.122;11.422;2022-10-29T16:11:52;7.70;;;3.38;;
40044;SDS011;25735;48.122;11.422;2022-10-29T16:14:17;9.98;;;3.53;;
40044;SDS011;25735;48.122;11.422;2022-10-29T16:16:42;6.88;;;3.85;;
40044;SDS011;25735;48.122;11.422;2022-10-29T16:19:08;8.25;;;3.00;;
40044;SDS011;25735;48.122;11.422;2022-10-29T16:21:33;11.10;;;3.70;;
40044;SDS011;25735;48.122;11.422;2022-10-29T16:23:59;10.88;;;4.32;;
40044;SDS011;25735;48.122;11.422;2022-10-29T16:26:24;17.60;;;5.03;;
40044;SDS011;25735;48.122;11.422;2022-10-29T16:28:50;11.90;;;3.83;;
40044;SDS011;25735;48.122;11.422;2022-10-29T16:31:21;11.75;;;3.15;;
40044;SDS011;25735;48.122;11.422;2022-10-29T16:33:49;9.57;;;3.53;;
40044;SDS011;25735;48.122;11.422;2022-10-29T16:36:16;24.73;;;5.18;;
40044;SDS011;25735;48.122;11.422;2022-10-29T16:38:42;9.43;;;3.38;;
40044;SDS011;25735;48.122;11.422;2022-10-29T16:41:11;11.85;;;3.83;;
40044;SDS011;25735;48.122;11.422;2022-10-29T16:43:38;9.63;;;3.55;;
40044;SDS011;25735;48.122;11.422;2022-10-29T16:46:04;9.40;;;3.70;;
40044;SDS011;25735;48.122;11.422;2022-10-29T16:48:30;11.27;;;3.78;;
40044;SDS011;25735;48.122;11.422;2022-10-29T16:50:56;17.30;;;4.97;;
40044;SDS011;25735;48.122;11.422;2022-10-29T16:53:21;8.20;;;4.35;;
40044;SDS011;25735;48.122;11.422;2022-10-29T16:55:46;16.20;;;4.40;;
40044;SDS011;25735;48.122;11.422;2022-10-29T16:58:12;14.05;;;4.45;;
40044;SDS011;25735;48.122;11.422;2022-10-29T17:00:38;11.02;;;4.25;;
40044;SDS011;25735;48.122;11.422;2022-10-29T17:03:04;17.10;;;4.53;;